createdAt,value
2022-11-30T00:00:30.118Z,68.18
2022-11-30T00:02:59.604Z,57.58
2022-11-30T00:05:26.205Z,69.43
2022-11-30T00:07:54.500Z,67.53
2022-11-30T00:10:21.785Z,74.70
2022-11-30T00:12:48.436Z,69.45
2022-11-30T00:15:17.012Z,63.08
2022-11-30T00:17:44.249Z,65.30
2022-11-30T00:20:11.692Z,73.30
2022-11-30T00:22:38.070Z,74.65
2022-11-30T00:25:04.865Z,61.70
2022-11-30T00:27:31.882Z,63.67
2022-11-30T00:29:58.491Z,76.88
2022-11-30T00:32:25.611Z,76.65
2022-11-30T00:34:52.041Z,71.63
2022-11-30T00:37:18.574Z,62.97
2022-11-30T00:39:44.893Z,72.30
2022-11-30T00:42:11.264Z,66.88
2022-11-30T00:44:37.591Z,75.43
2022-11-30T00:47:04.031Z,77.80
2022-11-30T00:49:30.388Z,82.88
2022-11-30T00:51:56.689Z,79.28
2022-11-30T00:54:23.083Z,73.63
2022-11-30T00:56:49.448Z,65.03
2022-11-30T00:59:15.732Z,70.13
2022-11-30T01:01:42.795Z,68.75
2022-11-30T01:04:09.131Z,64.57
2022-11-30T01:06:35.454Z,63.58
2022-11-30T01:09:02.880Z,58.83
2022-11-30T01:11:30.051Z,63.50
2022-11-30T01:13:57.524Z,68.18
2022-11-30T01:16:28.583Z,66.43
2022-11-30T01:18:55.024Z,62.25
2022-11-30T01:21:22.672Z,67.15
2022-11-30T01:23:49.385Z,79.07
2022-11-30T01:26:16.177Z,76.25
2022-11-30T01:28:45.532Z,80.55
2022-11-30T01:31:13.524Z,83.00
2022-11-30T01:33:40.516Z,81.75
2022-11-30T01:36:14.260Z,78.97
2022-11-30T01:38:41.659Z,78.75
2022-11-30T01:41:08.924Z,75.57
2022-11-30T01:43:46.128Z,76.45
2022-11-30T01:46:32.842Z,81.28
2022-11-30T01:49:11.506Z,88.50
2022-11-30T01:51:43.773Z,84.90
2022-11-30T01:54:11.601Z,85.90
2022-11-30T01:56:41.389Z,90.75
2022-11-30T01:59:07.942Z,87.88
2022-11-30T02:01:34.369Z,91.43
2022-11-30T02:04:13.076Z,95.72
2022-11-30T02:06:39.444Z,88.90
2022-11-30T02:09:05.748Z,92.93
2022-11-30T02:11:32.070Z,92.07
2022-11-30T02:14:16.143Z,84.30
2022-11-30T02:16:45.497Z,86.65
2022-11-30T02:19:30.894Z,88.13
2022-11-30T02:21:57.233Z,86.43
2022-11-30T02:24:23.559Z,83.32
2022-11-30T02:27:08.852Z,77.40
2022-11-30T02:29:40.998Z,93.97
2022-11-30T02:32:14.146Z,79.00
2022-11-30T02:34:42.535Z,85.60
2022-11-30T02:37:09.762Z,75.85
2022-11-30T02:39:36.071Z,75.88
2022-11-30T02:42:02.405Z,75.15
2022-11-30T02:44:29.008Z,78.65
2022-11-30T02:47:12.502Z,75.93
2022-11-30T02:49:57.413Z,76.13
2022-11-30T02:52:25.899Z,75.05
2022-11-30T02:54:52.858Z,74.75
2022-11-30T02:57:19.203Z,73.25
2022-11-30T02:59:45.597Z,70.93
2022-11-30T03:02:11.978Z,62.30
2022-11-30T03:04:38.333Z,65.00
2022-11-30T03:07:04.900Z,67.20
2022-11-30T03:09:31.216Z,66.35
2022-11-30T03:11:57.575Z,68.30
2022-11-30T03:14:23.876Z,66.68
2022-11-30T03:16:50.309Z,68.95
2022-11-30T03:19:16.779Z,60.35
2022-11-30T03:21:43.158Z,67.60
2022-11-30T03:24:09.567Z,62.78
2022-11-30T03:26:35.904Z,68.15
2022-11-30T03:29:02.274Z,65.78
2022-11-30T03:31:28.699Z,66.05
2022-11-30T03:33:55.047Z,61.85
2022-11-30T03:36:21.423Z,61.83
2022-11-30T03:38:47.844Z,65.20
2022-11-30T03:41:16.211Z,66.80
2022-11-30T03:43:43.044Z,60.90
2022-11-30T03:46:09.424Z,60.70
2022-11-30T03:48:36.833Z,51.42
2022-11-30T03:51:04.281Z,57.30
2022-11-30T03:53:31.034Z,54.85
2022-11-30T03:55:59.866Z,45.15
2022-11-30T03:58:26.392Z,46.67
2022-11-30T04:01:01.806Z,47.97
2022-11-30T04:03:28.521Z,53.80
2022-11-30T04:05:55.326Z,55.75
2022-11-30T04:08:22.088Z,48.55
2022-11-30T04:10:51.054Z,40.78
2022-11-30T04:13:17.566Z,46.38
2022-11-30T04:15:45.609Z,59.72
2022-11-30T04:18:12.017Z,51.72
2022-11-30T04:20:40.553Z,44.30
2022-11-30T04:23:07.425Z,39.72
2022-11-30T04:25:33.852Z,43.88
2022-11-30T04:28:00.167Z,50.17
2022-11-30T04:30:26.504Z,47.20
2022-11-30T04:32:52.855Z,43.42
2022-11-30T04:35:19.158Z,52.47
2022-11-30T04:37:45.459Z,49.38
2022-11-30T04:40:12.172Z,46.10
2022-11-30T04:42:38.464Z,47.10
2022-11-30T04:45:04.951Z,47.40
2022-11-30T04:47:31.298Z,46.63
2022-11-30T04:49:57.608Z,47.78
2022-11-30T04:52:23.896Z,48.72
2022-11-30T04:54:51.450Z,48.72
2022-11-30T04:57:18.083Z,48.75
2022-11-30T04:59:44.424Z,45.45
2022-11-30T05:02:10.787Z,47.03
2022-11-30T05:04:37.165Z,55.20
2022-11-30T05:07:03.624Z,43.58
2022-11-30T05:09:29.972Z,42.25
2022-11-30T05:11:56.362Z,42.42
2022-11-30T05:14:22.715Z,40.25
2022-11-30T05:16:49.171Z,44.80
2022-11-30T05:19:15.747Z,35.88
2022-11-30T05:21:45.560Z,38.00
2022-11-30T05:24:12.303Z,44.00
2022-11-30T05:26:38.670Z,45.15
2022-11-30T05:29:05.567Z,44.92
2022-11-30T05:31:32.420Z,44.40
2022-11-30T05:33:58.767Z,37.92
2022-11-30T05:36:25.190Z,41.55
2022-11-30T05:38:51.540Z,37.45
2022-11-30T05:41:17.927Z,39.13
2022-11-30T05:43:44.739Z,37.85
2022-11-30T05:46:11.040Z,42.65
2022-11-30T05:48:37.371Z,46.78
2022-11-30T05:51:11.300Z,39.08
2022-11-30T05:56:11.513Z,44.10
2022-11-30T06:01:04.187Z,46.55
2022-11-30T06:03:31.225Z,42.95
2022-11-30T06:05:57.599Z,43.08
2022-11-30T06:08:24.359Z,48.03
2022-11-30T06:10:50.865Z,51.58
2022-11-30T06:13:17.541Z,49.72
2022-11-30T06:15:43.849Z,51.72
2022-11-30T06:18:11.759Z,48.40
2022-11-30T06:20:38.123Z,47.97
2022-11-30T06:23:04.423Z,47.30
2022-11-30T06:25:30.719Z,44.95
2022-11-30T06:27:57.071Z,50.15
2022-11-30T06:30:23.500Z,55.05
2022-11-30T06:32:51.051Z,48.13
2022-11-30T06:35:18.268Z,48.88
2022-11-30T06:37:44.964Z,51.53
2022-11-30T06:40:12.661Z,50.83
2022-11-30T06:42:39.163Z,54.42
2022-11-30T06:45:06.136Z,55.10
2022-11-30T06:47:32.550Z,53.78
2022-11-30T06:49:58.842Z,42.78
2022-11-30T06:52:25.262Z,44.65
2022-11-30T06:54:51.559Z,43.88
2022-11-30T06:57:17.904Z,46.75
2022-11-30T06:59:44.251Z,56.15
2022-11-30T07:02:17.981Z,51.65
2022-11-30T07:04:45.112Z,64.05
2022-11-30T07:07:11.656Z,53.72
2022-11-30T07:09:37.991Z,46.03
2022-11-30T07:12:04.707Z,45.08
2022-11-30T07:14:31.075Z,36.78
2022-11-30T07:16:57.395Z,40.78
2022-11-30T07:19:23.712Z,42.25
2022-11-30T07:21:50.027Z,39.30
2022-11-30T07:24:35.018Z,37.67
2022-11-30T07:27:02.224Z,35.00
2022-11-30T07:29:28.703Z,32.55
2022-11-30T07:31:55.054Z,35.03
2022-11-30T07:34:21.915Z,36.38
2022-11-30T07:36:48.428Z,37.30
2022-11-30T07:39:14.787Z,33.65
2022-11-30T07:41:41.568Z,36.75
2022-11-30T07:44:09.198Z,34.58
2022-11-30T07:46:36.197Z,30.02
2022-11-30T07:49:06.893Z,26.63
2022-11-30T07:51:33.618Z,28.23
2022-11-30T07:54:00.102Z,31.33
2022-11-30T07:56:27.165Z,29.23
2022-11-30T07:58:54.670Z,27.75
2022-11-30T08:01:22.349Z,27.33
2022-11-30T08:03:49.394Z,26.13
2022-11-30T08:06:20.832Z,29.15
2022-11-30T08:08:47.822Z,29.00
2022-11-30T08:11:15.466Z,30.60
2022-11-30T08:13:42.073Z,25.77
2022-11-30T08:16:09.248Z,27.73
2022-11-30T08:18:35.948Z,26.77
2022-11-30T08:21:03.954Z,29.52
2022-11-30T08:23:35.126Z,28.48
2022-11-30T08:26:12.125Z,30.35
2022-11-30T08:28:39.466Z,29.20
2022-11-30T08:31:07.942Z,29.35
2022-11-30T08:33:34.678Z,31.30
2022-11-30T08:36:08.244Z,34.13
2022-11-30T08:38:35.091Z,34.08
2022-11-30T08:41:01.747Z,34.38
2022-11-30T08:43:28.280Z,32.38
2022-11-30T08:45:57.390Z,34.22
2022-11-30T08:48:24.406Z,37.47
2022-11-30T08:50:50.876Z,39.30
2022-11-30T08:53:17.172Z,39.88
2022-11-30T08:55:43.466Z,36.28
2022-11-30T08:58:09.992Z,36.38
2022-11-30T09:00:36.354Z,37.70
2022-11-30T09:03:02.713Z,35.60
2022-11-30T09:05:29.164Z,34.17
2022-11-30T09:07:55.569Z,31.90
2022-11-30T09:10:22.063Z,35.08
2022-11-30T09:12:48.379Z,34.58
2022-11-30T09:15:14.675Z,33.53
2022-11-30T09:17:41.030Z,27.67
2022-11-30T09:20:07.831Z,29.02
2022-11-30T09:22:34.224Z,25.33
2022-11-30T09:25:00.517Z,27.25
2022-11-30T09:27:30.279Z,29.00
2022-11-30T09:29:57.021Z,24.27
2022-11-30T09:32:23.371Z,26.55
2022-11-30T09:34:50.889Z,24.42
2022-11-30T09:37:17.497Z,25.60
2022-11-30T09:39:43.826Z,25.20
2022-11-30T09:42:28.974Z,22.63
2022-11-30T09:44:58.296Z,28.00
2022-11-30T09:47:32.214Z,28.00
2022-11-30T09:50:02.188Z,21.58
2022-11-30T09:52:34.431Z,23.92
2022-11-30T09:55:06.433Z,23.55
2022-11-30T09:57:41.989Z,23.88
2022-11-30T10:00:19.160Z,27.95
2022-11-30T10:02:45.897Z,22.25
2022-11-30T10:05:20.951Z,21.85
2022-11-30T10:08:07.069Z,24.25
2022-11-30T10:10:36.579Z,23.00
2022-11-30T10:13:16.168Z,21.02
2022-11-30T10:16:12.968Z,23.40
2022-11-30T10:18:51.676Z,28.27
2022-11-30T10:21:38.421Z,33.55
2022-11-30T10:24:17.430Z,34.95
2022-11-30T10:26:49.701Z,36.55
2022-11-30T10:29:18.980Z,40.35
2022-11-30T10:31:47.351Z,38.17
2022-11-30T10:34:20.318Z,38.17
2022-11-30T10:36:58.913Z,37.22
2022-11-30T10:39:45.524Z,38.83
2022-11-30T10:42:15.056Z,42.00
2022-11-30T10:44:43.699Z,38.58
2022-11-30T10:47:13.011Z,46.88
2022-11-30T10:49:41.347Z,39.55
2022-11-30T10:52:08.887Z,39.47
2022-11-30T10:54:35.836Z,38.40
2022-11-30T10:57:03.108Z,38.25
2022-11-30T10:59:34.351Z,40.75
2022-11-30T11:02:01.152Z,37.17
2022-11-30T11:04:27.881Z,39.55
2022-11-30T11:06:56.850Z,41.13
2022-11-30T11:09:34.518Z,39.95
2022-11-30T11:12:15.023Z,37.33
2022-11-30T11:14:41.320Z,40.75
2022-11-30T11:17:20.053Z,34.25
2022-11-30T11:19:47.406Z,33.50
2022-11-30T11:22:24.343Z,26.35
2022-11-30T11:24:53.259Z,22.50
2022-11-30T11:27:30.689Z,21.55
2022-11-30T11:30:08.195Z,23.85
2022-11-30T11:32:35.137Z,19.95
2022-11-30T11:35:01.549Z,21.88
2022-11-30T11:37:33.583Z,21.85
2022-11-30T11:40:01.631Z,22.17
2022-11-30T11:42:30.717Z,19.05
2022-11-30T11:44:58.641Z,20.05
2022-11-30T11:47:26.642Z,21.02
2022-11-30T11:50:04.332Z,20.00
2022-11-30T11:52:30.705Z,18.88
2022-11-30T11:55:02.900Z,24.35
2022-11-30T11:57:37.945Z,23.02
2022-11-30T12:00:09.886Z,20.45
2022-11-30T12:02:54.647Z,18.40
2022-11-30T12:05:26.457Z,17.17
2022-11-30T12:08:04.992Z,16.92
2022-11-30T12:10:52.659Z,15.63
2022-11-30T12:13:22.061Z,17.52
2022-11-30T12:16:00.849Z,20.48
2022-11-30T12:18:33.125Z,27.23
2022-11-30T12:21:07.486Z,26.42
2022-11-30T12:23:52.726Z,22.10
2022-11-30T12:26:25.496Z,23.38
2022-11-30T12:29:05.213Z,19.38
2022-11-30T12:31:39.500Z,24.90
2022-11-30T12:34:08.898Z,20.48
2022-11-30T12:36:41.452Z,17.33
2022-11-30T12:39:10.816Z,16.58
2022-11-30T12:41:49.626Z,14.07
2022-11-30T12:44:22.485Z,15.27
2022-11-30T12:46:48.942Z,16.77
2022-11-30T12:49:21.352Z,16.02
2022-11-30T12:52:13.739Z,14.20
2022-11-30T12:54:52.720Z,14.48
2022-11-30T12:57:37.252Z,15.88
2022-11-30T13:00:06.801Z,15.40
2022-11-30T13:02:45.121Z,15.05
2022-11-30T13:05:13.567Z,16.55
2022-11-30T13:07:43.174Z,16.75
2022-11-30T13:10:15.694Z,16.33
2022-11-30T13:12:43.690Z,15.93
2022-11-30T13:15:15.780Z,16.83
2022-11-30T13:17:42.864Z,14.95
2022-11-30T13:20:14.301Z,17.77
2022-11-30T13:22:48.468Z,15.38
2022-11-30T13:25:34.102Z,16.85
2022-11-30T13:28:16.850Z,15.70
2022-11-30T13:30:52.673Z,16.80
2022-11-30T13:33:34.671Z,24.35
2022-11-30T13:36:19.948Z,24.02
2022-11-30T13:38:46.442Z,25.48
2022-11-30T13:41:19.598Z,26.75
2022-11-30T13:43:47.939Z,29.90
2022-11-30T13:46:19.317Z,30.67
2022-11-30T13:48:45.992Z,34.22
2022-11-30T13:51:12.723Z,34.45
2022-11-30T13:53:39.903Z,32.25
2022-11-30T13:56:18.494Z,31.17
2022-11-30T13:59:03.599Z,33.20
2022-11-30T14:01:29.904Z,36.97
2022-11-30T14:04:14.468Z,43.35
2022-11-30T14:06:48.425Z,44.08
2022-11-30T14:11:42.355Z,42.55
2022-11-30T14:14:30.397Z,42.38
2022-11-30T14:16:57.545Z,47.40
2022-11-30T14:19:23.965Z,46.72
2022-11-30T14:21:50.464Z,47.45
2022-11-30T14:24:19.175Z,46.13
2022-11-30T14:26:50.320Z,48.70
2022-11-30T14:29:23.200Z,50.25
2022-11-30T14:31:54.325Z,51.65
2022-11-30T14:34:23.315Z,52.50
2022-11-30T14:36:55.025Z,53.70
2022-11-30T14:39:35.326Z,68.25
2022-11-30T14:42:02.122Z,73.65
2022-11-30T14:44:34.068Z,77.63
2022-11-30T14:47:23.697Z,85.78
2022-11-30T14:49:54.955Z,90.63
2022-11-30T14:52:40.158Z,96.45
2022-11-30T14:55:06.444Z,95.70
2022-11-30T14:57:43.611Z,114.15
2022-11-30T15:00:17.360Z,104.57
2022-11-30T15:02:44.321Z,108.55
2022-11-30T15:05:26.741Z,102.20
2022-11-30T15:07:53.510Z,111.18
2022-11-30T15:10:30.639Z,117.63
2022-11-30T15:12:57.977Z,133.40
2022-11-30T15:15:26.433Z,118.88
2022-11-30T15:17:52.804Z,116.32
2022-11-30T15:20:22.653Z,111.30
2022-11-30T15:22:48.992Z,113.10
2022-11-30T15:25:15.433Z,114.40
2022-11-30T15:27:42.091Z,119.05
2022-11-30T15:30:13.044Z,107.75
2022-11-30T15:32:39.404Z,109.95
2022-11-30T15:35:05.975Z,107.95
2022-11-30T15:37:33.676Z,106.68
2022-11-30T15:40:01.718Z,107.03
2022-11-30T15:42:39.464Z,103.75
2022-11-30T15:45:21.369Z,93.40
2022-11-30T15:47:47.789Z,92.35
2022-11-30T15:50:26.339Z,97.60
2022-11-30T15:52:53.983Z,102.22
2022-11-30T15:55:39.076Z,106.70
2022-11-30T15:58:05.438Z,100.50
2022-11-30T16:00:31.807Z,97.15
2022-11-30T16:03:11.514Z,83.97
2022-11-30T16:05:53.346Z,60.10
2022-11-30T16:08:19.718Z,60.33
2022-11-30T16:10:46.175Z,65.53
2022-11-30T16:13:13.781Z,63.05
2022-11-30T16:15:43.457Z,58.08
2022-11-30T16:18:18.136Z,57.13
2022-11-30T16:20:46.081Z,56.83
2022-11-30T16:23:15.063Z,59.95
2022-11-30T16:25:42.228Z,52.47
2022-11-30T16:28:09.552Z,54.75
2022-11-30T16:30:36.083Z,54.67
2022-11-30T16:33:02.517Z,50.65
2022-11-30T16:35:40.339Z,51.20
2022-11-30T16:38:06.682Z,47.10
2022-11-30T16:40:38.559Z,48.83
2022-11-30T16:43:05.643Z,49.08
2022-11-30T16:45:34.598Z,51.72
2022-11-30T16:48:00.939Z,46.72
2022-11-30T16:50:27.276Z,47.70
2022-11-30T16:52:53.624Z,44.15
2022-11-30T16:55:21.486Z,42.92
2022-11-30T16:57:48.447Z,49.67
2022-11-30T17:00:16.929Z,46.72
2022-11-30T17:02:47.180Z,49.60
2022-11-30T17:05:14.541Z,47.72
2022-11-30T17:07:41.114Z,46.80
2022-11-30T17:10:08.196Z,43.92
2022-11-30T17:12:35.510Z,49.63
2022-11-30T17:15:02.114Z,46.25
2022-11-30T17:17:28.469Z,51.90
2022-11-30T17:19:54.747Z,47.60
2022-11-30T17:22:21.037Z,51.35
2022-11-30T17:24:47.664Z,50.17
2022-11-30T17:27:14.168Z,66.90
2022-11-30T17:29:41.528Z,37.90
2022-11-30T17:32:07.835Z,35.60
2022-11-30T17:34:34.152Z,35.00
2022-11-30T17:37:00.524Z,37.97
2022-11-30T17:39:26.837Z,38.00
2022-11-30T17:41:53.193Z,52.40
2022-11-30T17:44:19.523Z,53.75
2022-11-30T17:46:48.494Z,41.47
2022-11-30T17:49:14.993Z,57.90
2022-11-30T17:51:41.358Z,51.45
2022-11-30T17:54:07.713Z,56.13
2022-11-30T17:56:34.249Z,59.90
2022-11-30T17:59:00.844Z,51.92
2022-11-30T18:01:27.326Z,46.80
2022-11-30T18:03:54.878Z,44.83
2022-11-30T18:06:21.269Z,47.22
2022-11-30T18:08:47.681Z,46.70
2022-11-30T18:11:21.350Z,45.38
2022-11-30T18:13:48.613Z,39.40
2022-11-30T18:16:16.595Z,39.55
2022-11-30T18:18:47.704Z,42.30
2022-11-30T18:21:15.260Z,46.45
2022-11-30T18:23:41.848Z,43.53
2022-11-30T18:26:10.260Z,42.13
2022-11-30T18:28:36.555Z,39.83
2022-11-30T18:31:04.626Z,44.88
2022-11-30T18:33:31.041Z,44.00
2022-11-30T18:35:58.424Z,42.65
2022-11-30T18:38:25.005Z,42.25
2022-11-30T18:40:52.037Z,58.08
2022-11-30T18:43:18.359Z,53.10
2022-11-30T18:45:44.779Z,49.53
2022-11-30T18:48:11.110Z,47.20
2022-11-30T18:50:37.496Z,50.47
2022-11-30T18:53:04.161Z,39.47
2022-11-30T18:55:30.573Z,41.38
2022-11-30T18:57:57.077Z,33.40
2022-11-30T19:00:23.717Z,38.75
2022-11-30T19:02:50.382Z,39.05
2022-11-30T19:05:32.061Z,38.63
2022-11-30T19:07:59.009Z,33.90
2022-11-30T19:10:25.525Z,36.53
2022-11-30T19:12:51.907Z,37.60
2022-11-30T19:15:18.320Z,30.50
2022-11-30T19:17:44.639Z,30.45
2022-11-30T19:20:11.207Z,33.33
2022-11-30T19:22:37.577Z,34.80
2022-11-30T19:25:04.013Z,30.92
2022-11-30T19:27:30.306Z,30.35
2022-11-30T19:29:56.727Z,36.05
2022-11-30T19:32:23.041Z,36.45
2022-11-30T19:34:49.852Z,38.00
2022-11-30T19:37:16.414Z,36.78
2022-11-30T19:39:42.711Z,33.92
2022-11-30T19:42:10.854Z,44.53
2022-11-30T19:44:37.201Z,38.33
2022-11-30T19:47:03.503Z,34.78
2022-11-30T19:49:29.798Z,38.97
2022-11-30T19:51:56.075Z,39.03
2022-11-30T19:54:22.441Z,38.92
2022-11-30T19:56:49.287Z,41.95
2022-11-30T19:59:15.620Z,40.20
2022-11-30T20:01:42.025Z,46.60
2022-11-30T20:04:08.401Z,41.22
2022-11-30T20:06:35.907Z,41.30
2022-11-30T20:09:03.508Z,39.53
2022-11-30T20:11:29.943Z,39.72
2022-11-30T20:13:56.310Z,40.10
2022-11-30T20:16:23.042Z,41.17
2022-11-30T20:18:57.119Z,39.25
2022-11-30T20:21:24.772Z,38.72
2022-11-30T20:23:51.734Z,36.58
2022-11-30T20:26:22.634Z,41.58
2022-11-30T20:28:50.018Z,43.58
2022-11-30T20:31:17.302Z,41.00
2022-11-30T20:33:43.775Z,40.92
2022-11-30T20:36:10.798Z,46.25
2022-11-30T20:38:37.709Z,53.47
2022-11-30T20:41:04.537Z,48.88
2022-11-30T20:43:30.900Z,48.67
2022-11-30T20:45:57.264Z,49.88
2022-11-30T20:48:23.728Z,48.83
2022-11-30T20:51:21.686Z,48.55
2022-11-30T20:53:36.434Z,54.72
2022-11-30T20:56:02.848Z,52.90
2022-11-30T20:58:29.226Z,58.05
2022-11-30T21:00:55.524Z,55.35
2022-11-30T21:03:21.835Z,55.17
2022-11-30T21:05:48.093Z,50.10
2022-11-30T21:08:14.490Z,56.47
2022-11-30T21:10:40.856Z,52.90
2022-11-30T21:13:07.170Z,53.08
2022-11-30T21:15:33.568Z,52.17
2022-11-30T21:17:59.973Z,54.13
2022-11-30T21:20:26.616Z,54.92
2022-11-30T21:22:52.946Z,58.78
2022-11-30T21:25:19.383Z,65.90
2022-11-30T21:27:50.501Z,50.90
2022-11-30T21:30:16.935Z,61.75
2022-11-30T21:32:43.315Z,51.95
2022-11-30T21:35:09.997Z,48.80
2022-11-30T21:37:36.274Z,51.65
2022-11-30T21:40:02.631Z,53.90
2022-11-30T21:42:28.911Z,52.05
2022-11-30T21:44:55.344Z,54.63
2022-11-30T21:47:21.684Z,48.45
2022-11-30T21:49:48.078Z,54.55
2022-11-30T21:52:14.441Z,46.95
2022-11-30T21:54:40.807Z,53.72
2022-11-30T21:57:07.120Z,53.30
2022-11-30T21:59:33.399Z,52.53
2022-11-30T22:01:59.763Z,55.45
2022-11-30T22:04:26.195Z,55.28
2022-11-30T22:06:52.588Z,56.97
2022-11-30T22:09:18.965Z,54.25
2022-11-30T22:11:45.394Z,55.70
2022-11-30T22:14:13.173Z,55.03
2022-11-30T22:16:39.658Z,61.85
2022-11-30T22:19:06.688Z,56.90
2022-11-30T22:21:33.065Z,57.05
2022-11-30T22:24:00.536Z,50.10
2022-11-30T22:26:31.419Z,51.63
2022-11-30T22:28:58.808Z,52.63
2022-11-30T22:31:27.368Z,47.38
2022-11-30T22:33:53.758Z,47.53
2022-11-30T22:36:21.458Z,50.05
2022-11-30T22:38:52.659Z,46.17
2022-11-30T22:41:18.928Z,46.88
2022-11-30T22:43:48.747Z,41.92
2022-11-30T22:46:16.391Z,44.88
2022-11-30T22:48:42.992Z,47.72
2022-11-30T22:51:14.376Z,47.70
2022-11-30T22:53:41.226Z,48.78
2022-11-30T22:56:12.711Z,50.53
2022-11-30T22:58:39.554Z,54.08
2022-11-30T23:01:16.428Z,49.55
2022-11-30T23:03:43.377Z,46.30
2022-11-30T23:06:10.550Z,47.42
2022-11-30T23:08:37.470Z,48.33
2022-11-30T23:11:06.071Z,47.35
2022-11-30T23:13:32.475Z,55.78
2022-11-30T23:15:59.863Z,51.28
2022-11-30T23:18:30.040Z,46.30
2022-11-30T23:20:57.413Z,46.00
2022-11-30T23:23:23.832Z,50.55
2022-11-30T23:25:50.215Z,61.22
2022-11-30T23:28:16.905Z,54.55
2022-11-30T23:30:43.194Z,54.63
2022-11-30T23:33:10.182Z,68.93
2022-11-30T23:35:37.907Z,64.65
2022-11-30T23:38:04.219Z,63.00
2022-11-30T23:40:30.526Z,69.70
2022-11-30T23:42:56.877Z,75.57
2022-11-30T23:45:23.201Z,69.55
2022-11-30T23:47:49.483Z,66.35
2022-11-30T23:50:15.856Z,59.22
2022-11-30T23:52:42.190Z,61.35
2022-11-30T23:55:08.767Z,57.00
2022-11-30T23:57:35.082Z,63.55
